SCSE/LSC METAR and TAF weather

Enter ICAO airport designator
Station Type Date Time Source
SCSE METAR 2019/08/22 09:00 UTC NOAA

SCSE 220900Z 14007KT CAVOK 13/03 Q1015


Station Type Date Time Source
SCSE Decoded METAR 2019/08/22 09:00 UTC NOAA

Station name not available
Aug 22, 2019 - 05:00 AM EDT / 2019.08.22 0900 UTC
Wind: from the SE (140 degrees) at 8 MPH (7 KT):0
Visibility: greater than 7 mile(s):0
Temperature: 55 F (13 C)
Dew Point: 37 F (3 C)
Relative Humidity: 50%
Pressure (altimeter): 29.97 in. Hg (1015 hPa)
ob: SCSE 220900Z 14007KT CAVOK 13/03 Q1015
cycle: 9

Station Type Date Time Source
SCSE TAF 2019/08/21 12:03 UTC NOAA

TAF TAF SCSE 211010Z 2112/2124 11004KT 9999 BKN007 OVC012 TX15/2119Z TN09/2112Z
TEMPO 2112/2114 2000 BR OVC002
BECMG 2115/2116 SCT010 BKN015
BECMG 2117/2118 28010KT CAVOK

Example: see airport list